Airfield :
LOGIN :

Register | Disclaimer

   EN    FR    IT 

 










Legend :    VFR   Marginal VFR   IFR   Intensive IFR   Very Intensive IFR
Visi :
Ceiling :
>= 8 km
>= 3000ft
5 to 8 km
1000 to 3000 ft
1500m to 5 km
500 to 1000 ft
800 to 1500m
200 to 500 ft
< 800m
< 200 ft
Symbols :   Thunderstorms  Fog  Heavy snow  Heavy precipitations  Wind > 20 kt
SIGMETs :     Misc.  Thunderstorms  Icing  Turbulence  Mountain Waves  Volcanic Ashes






- Airport Elevation : 290 ft
- IATA code : ACI


EGJA - Alderney

CURRENT METAR :
  • 130920Z 30029G42KT 9999 FEW025CB SCT030 07/03 Q0987

EXPIRED METARs :
  • 130850Z 30032G43KT 9999 FEW025CB SCT030 08/02 Q0986
  • 130820Z 30035G46KT 9999 FEW040CB 09/01 Q0986
  • 130750Z 30031G42KT 9999 FEW043 09/03 Q0985
  • 130650Z 30034G45KT 9999 FEW032 09/02 Q0983

TAF AMD TAF EGJA
Valid from the 13 at 09:00 until the 13 at 18:00 UTC


130810Z 1309/1318 29028G42KT 9999 FEW030
TEMPO 1309/1315 7000 SHRA BKN014CB
PROB30
TEMPO 1309/1311 30038G54KT 4000 +SHRAGS
BECMG 1316/1318 27018KT 8000 RA BKN014



MET'MAP, your aeronautical weather chart ! - Copyright ORBIFLY December 2007 - Disclaimer

ORBIFLY MET'MAP TEAM :

Programming & Development : Alexandra Zaïnal
Concept & original design : Baudouin d'Aumeries
Assistance for programming : Marc-Olivier Méhu
Technical & hardware support : Manuel Goepfert

Contact : metmap@orbifly.com




SOURCES & CREDITS :

   NOAA